HXX weather

Hay Airport
New South Wales, Australia

Public forecast

Using degrees Celsius for public forecast. Weather courtesy of forecast.io.

METAR (pilot weather report)

Closest report is Griffith Airport, 63.6 nm (117.7 km) ENE. Retrieved 2019/04/22 21:00 UTC (39 minutes ago):

YGTH 222100Z AUTO 13004KT 9999 // OVC100 18/17 Q1024

TAF (pilot weather forecast)

Closest forecast is Wangaratta Airport, 134.2 nm (248.6 km) SSE. Retrieved 2019/04/22 20:33 UTC (1 hour ago):

TAF TAF YWGT 221904Z 2220/2308 VRB05KT 9999 BKN050 FM230600 VRB05KT CAVOK